createdAt,value
2017-10-29T00:00:26.621Z,51.5
2017-10-29T00:01:28.095Z,51.6
2017-10-29T00:02:29.915Z,51.1
2017-10-29T00:03:31.731Z,50.9
2017-10-29T00:04:33.557Z,51
2017-10-29T00:05:35.713Z,51.2
2017-10-29T00:06:37.513Z,51.2
2017-10-29T00:07:39.338Z,51.2
2017-10-29T00:08:41.174Z,51
2017-10-29T00:09:43.339Z,51.3
2017-10-29T00:10:44.838Z,51.2
2017-10-29T00:11:46.659Z,51.1
2017-10-29T00:12:48.132Z,51.1
2017-10-29T00:13:49.604Z,51.1
2017-10-29T00:14:51.425Z,51.2
2017-10-29T00:15:53.223Z,51.3
2017-10-29T00:16:55.391Z,51.5
2017-10-29T00:17:57.211Z,51.2
2017-10-29T00:18:59.010Z,51.3
2017-10-29T00:20:00.833Z,51.3
2017-10-29T00:21:01.938Z,51.2
2017-10-29T00:22:04.101Z,51.2
2017-10-29T00:23:05.900Z,51.2
2017-10-29T00:24:07.697Z,51.2
2017-10-29T00:25:09.497Z,51.2
2017-10-29T00:26:11.669Z,51.2
2017-10-29T00:27:13.470Z,51.2
2017-10-29T00:28:14.584Z,51.2
2017-10-29T00:29:16.749Z,51.3
2017-10-29T00:30:18.223Z,51.3
2017-10-29T00:31:20.040Z,51.4
2017-10-29T00:32:22.205Z,51.1
2017-10-29T00:33:23.679Z,51.3
2017-10-29T00:34:25.161Z,51.2
2017-10-29T00:35:26.975Z,51.5
2017-10-29T00:36:28.471Z,51.4
2017-10-29T00:37:30.280Z,51.6
2017-10-29T00:38:31.390Z,51.4
2017-10-29T00:39:33.586Z,51.3
2017-10-29T00:40:35.394Z,51.6
2017-10-29T00:41:37.211Z,51.5
2017-10-29T00:42:39.034Z,51.5
2017-10-29T00:43:40.885Z,51.6
2017-10-29T00:44:43.045Z,51.5
2017-10-29T00:45:45.210Z,51.5
2017-10-29T00:46:47.392Z,51.5
2017-10-29T00:47:49.553Z,51.5
2017-10-29T00:48:51.348Z,51.6
2017-10-29T00:49:53.173Z,51.6
2017-10-29T00:50:55.331Z,51.4
2017-10-29T00:51:56.808Z,51.5
2017-10-29T00:52:58.608Z,51.5
2017-10-29T00:54:00.428Z,51.5
2017-10-29T00:55:02.231Z,51.7
2017-10-29T00:56:04.031Z,51.4
2017-10-29T00:57:05.880Z,51.6
2017-10-29T00:58:07.694Z,51.7
2017-10-29T00:59:09.170Z,51.7
2017-10-29T01:00:10.970Z,51.6
2017-10-29T01:01:12.444Z,52.2
2017-10-29T01:02:14.278Z,51.6
2017-10-29T01:03:16.102Z,51.6
2017-10-29T01:04:17.574Z,51.6
2017-10-29T01:05:19.394Z,51.8
2017-10-29T01:06:21.560Z,51.4
2017-10-29T01:07:23.406Z,51.7
2017-10-29T01:08:24.538Z,51.4
2017-10-29T01:09:26.723Z,51.5
2017-10-29T01:10:28.886Z,51.5
2017-10-29T01:11:30.360Z,51.5
2017-10-29T01:12:32.540Z,51.8
2017-10-29T01:13:33.648Z,51.5
2017-10-29T01:14:34.757Z,51.7
2017-10-29T01:15:36.234Z,51.6
2017-10-29T01:16:37.711Z,51.6
2017-10-29T01:17:39.510Z,51.5
2017-10-29T01:18:40.987Z,52.1
2017-10-29T01:19:42.810Z,52
2017-10-29T01:20:44.263Z,51.7
2017-10-29T01:21:46.425Z,51.6
2017-10-29T01:22:48.246Z,52
2017-10-29T01:23:50.066Z,52
2017-10-29T01:24:51.539Z,51.6
2017-10-29T01:25:53.361Z,51.7
2017-10-29T01:26:55.183Z,51.6
2017-10-29T01:27:56.636Z,51.6
2017-10-29T01:28:58.466Z,51.5
2017-10-29T01:30:00.284Z,51.5
2017-10-29T01:31:02.084Z,52.2
2017-10-29T01:32:03.534Z,52.2
2017-10-29T01:33:05.704Z,52.1
2017-10-29T01:34:07.157Z,52.3
2017-10-29T01:35:09.321Z,51.7
2017-10-29T01:36:11.141Z,51.7
2017-10-29T01:37:12.595Z,51.9
2017-10-29T01:38:14.421Z,51.8
2017-10-29T01:39:16.220Z,51.8
2017-10-29T01:40:18.018Z,52.3
2017-10-29T01:41:19.840Z,51.7
2017-10-29T01:42:21.662Z,51.8
2017-10-29T01:43:23.821Z,51.8
2017-10-29T01:44:24.929Z,51.8
2017-10-29T01:45:26.747Z,51.7
2017-10-29T01:46:28.933Z,51.8
2017-10-29T01:47:31.143Z,51.8
2017-10-29T01:48:32.963Z,52
2017-10-29T01:49:35.123Z,51.7
2017-10-29T01:50:37.283Z,51.9
2017-10-29T01:51:38.756Z,52
2017-10-29T01:52:40.551Z,52.3
2017-10-29T01:53:42.713Z,51.9
2017-10-29T01:54:43.864Z,51.9
2017-10-29T01:55:45.336Z,51.8
2017-10-29T01:56:47.155Z,51.9
2017-10-29T01:57:49.318Z,52.3
2017-10-29T01:58:51.141Z,51.9
2017-10-29T01:59:52.963Z,51.8
2017-10-29T02:00:54.065Z,51.8
2017-10-29T02:01:56.228Z,52.1
2017-10-29T02:02:58.060Z,52.1
2017-10-29T02:03:59.863Z,51.9
2017-10-29T02:05:01.324Z,52.1
2017-10-29T02:06:02.798Z,51.9
2017-10-29T02:07:04.251Z,51.9
2017-10-29T02:08:05.726Z,51.9
2017-10-29T02:09:07.887Z,52.4
2017-10-29T02:10:10.049Z,52
2017-10-29T02:11:11.865Z,52.3
2017-10-29T02:12:14.030Z,52.1
2017-10-29T02:13:16.191Z,52
2017-10-29T02:14:18.068Z,52.5
2017-10-29T02:15:19.863Z,52.5
2017-10-29T02:16:21.685Z,52.5
2017-10-29T02:17:23.500Z,52.2
2017-10-29T02:18:25.664Z,52.2
2017-10-29T02:19:27.457Z,52.2
2017-10-29T02:20:29.272Z,52.5
2017-10-29T02:21:31.101Z,52.5
2017-10-29T02:22:32.913Z,53
2017-10-29T02:23:35.077Z,52.5
2017-10-29T02:24:36.527Z,52.3
2017-10-29T02:25:38.691Z,52.3
2017-10-29T02:26:40.509Z,52.6
2017-10-29T02:27:41.985Z,52.3
2017-10-29T02:28:44.145Z,52.6
2017-10-29T02:29:46.305Z,52.3
2017-10-29T02:30:48.467Z,52.8
2017-10-29T02:31:50.630Z,52.3
2017-10-29T02:32:52.790Z,52.3
2017-10-29T02:33:54.263Z,52.4
2017-10-29T02:34:56.426Z,52.3
2017-10-29T02:35:58.246Z,52.4
2017-10-29T02:37:00.061Z,52.3
2017-10-29T02:38:01.877Z,52.8
2017-10-29T02:39:03.695Z,52.4
2017-10-29T02:40:05.168Z,52.4
2017-10-29T02:41:06.985Z,52.8
2017-10-29T02:42:08.806Z,52.4
2017-10-29T02:43:10.627Z,52.4
2017-10-29T02:44:12.448Z,52.3
2017-10-29T02:45:13.577Z,52.3
2017-10-29T02:46:15.736Z,52.4
2017-10-29T02:47:17.556Z,52.3
2017-10-29T02:48:19.716Z,52.4
2017-10-29T02:49:21.536Z,52.3
2017-10-29T02:50:23.698Z,52.5
2017-10-29T02:51:25.521Z,52.8
2017-10-29T02:52:27.676Z,52.7
2017-10-29T02:53:29.492Z,52.7
2017-10-29T02:54:31.660Z,52.4
2017-10-29T02:55:33.457Z,52.8
2017-10-29T02:56:35.618Z,52.7
2017-10-29T02:57:37.437Z,52.5
2017-10-29T02:58:38.910Z,52.4
2017-10-29T02:59:40.729Z,52.5
2017-10-29T03:00:42.901Z,52.5
2017-10-29T03:01:44.377Z,53.2
2017-10-29T03:02:46.537Z,52.5
2017-10-29T03:03:48.376Z,52.8
2017-10-29T03:04:50.193Z,52.7
2017-10-29T03:05:51.646Z,52.6
2017-10-29T03:06:53.824Z,52.8
2017-10-29T03:07:55.632Z,52.8
2017-10-29T03:08:57.791Z,52.8
2017-10-29T03:09:59.587Z,52.8
2017-10-29T03:11:00.696Z,52.6
2017-10-29T03:12:02.857Z,52.8
2017-10-29T03:13:03.991Z,52.8
2017-10-29T03:14:05.464Z,52.9
2017-10-29T03:15:07.285Z,52.4
2017-10-29T03:16:08.410Z,52.5
2017-10-29T03:17:10.572Z,52.9
2017-10-29T03:18:12.025Z,52.7
2017-10-29T03:19:13.858Z,52.9
2017-10-29T03:20:15.679Z,52.6
2017-10-29T03:21:17.839Z,52.6
2017-10-29T03:22:20.001Z,52.9
2017-10-29T03:23:22.163Z,52.5
2017-10-29T03:24:23.983Z,52.7
2017-10-29T03:25:26.144Z,52.5
2017-10-29T03:26:27.963Z,52.7
2017-10-29T03:27:30.125Z,53
2017-10-29T03:28:32.288Z,52.6
2017-10-29T03:29:34.450Z,52.7
2017-10-29T03:30:35.907Z,53.5
2017-10-29T03:31:37.719Z,52.8
2017-10-29T03:32:39.903Z,52.8
2017-10-29T03:33:41.724Z,52.9
2017-10-29T03:34:43.552Z,52.9
2017-10-29T03:35:45.709Z,52.8
2017-10-29T03:36:47.172Z,52.9
2017-10-29T03:37:48.993Z,52.9
2017-10-29T03:38:50.466Z,52.9
2017-10-29T03:39:52.285Z,53
2017-10-29T03:40:54.107Z,52.8
2017-10-29T03:41:55.988Z,53.4
2017-10-29T03:42:57.440Z,52.9
2017-10-29T03:43:58.556Z,53.5
2017-10-29T03:45:00.009Z,53.5
2017-10-29T03:46:01.479Z,52.8
2017-10-29T03:47:03.641Z,52.9
2017-10-29T03:48:05.458Z,53.4
2017-10-29T03:49:07.254Z,52.8
2017-10-29T03:50:09.418Z,53.4
2017-10-29T03:51:11.232Z,52.7
2017-10-29T03:52:12.707Z,52.9
2017-10-29T03:53:14.161Z,52.9
2017-10-29T03:54:15.269Z,52.8
2017-10-29T03:55:17.085Z,52.8
2017-10-29T03:56:18.565Z,53.2
2017-10-29T03:57:20.727Z,52.8
2017-10-29T03:58:22.529Z,52.9
2017-10-29T03:59:24.689Z,53.1
2017-10-29T04:00:26.510Z,53
2017-10-29T04:01:28.328Z,53.1
2017-10-29T04:02:30.145Z,53
2017-10-29T04:03:31.964Z,53.2
2017-10-29T04:04:33.783Z,53.2
2017-10-29T04:05:35.601Z,53.2
2017-10-29T04:06:37.417Z,53.2
2017-10-29T04:07:39.236Z,53.2
2017-10-29T04:08:41.395Z,53.2
2017-10-29T04:09:42.866Z,53
2017-10-29T04:10:45.028Z,53
2017-10-29T04:11:46.135Z,53.2
2017-10-29T04:12:47.607Z,53
2017-10-29T04:13:49.772Z,53.2
2017-10-29T04:14:51.591Z,53.2
2017-10-29T04:15:53.409Z,53
2017-10-29T04:16:54.881Z,53
2017-10-29T04:17:56.701Z,53.1
2017-10-29T04:18:58.862Z,53.1
2017-10-29T04:20:01.023Z,53.1
2017-10-29T04:21:02.838Z,53.2
2017-10-29T04:22:04.656Z,53.2
2017-10-29T04:23:06.818Z,53.5
2017-10-29T04:24:08.294Z,53.1
2017-10-29T04:25:10.454Z,53.1
2017-10-29T04:26:11.906Z,53
2017-10-29T04:27:13.706Z,53
2017-10-29T04:28:15.868Z,53.1
2017-10-29T04:29:17.686Z,53.2
2017-10-29T04:30:19.487Z,53
2017-10-29T04:31:21.647Z,52.9
2017-10-29T04:32:23.464Z,53.3
2017-10-29T04:33:25.293Z,53
2017-10-29T04:34:26.733Z,52.9
2017-10-29T04:35:28.894Z,53.1
2017-10-29T04:36:30.717Z,53
2017-10-29T04:37:32.515Z,52.9
2017-10-29T04:38:33.965Z,53.3
2017-10-29T04:39:36.126Z,52.9
2017-10-29T04:40:37.579Z,53.4
2017-10-29T04:41:39.743Z,53.3
2017-10-29T04:42:41.918Z,53.3
2017-10-29T04:43:43.713Z,53.2
2017-10-29T04:44:45.532Z,53.4
2017-10-29T04:45:46.989Z,53.3
2017-10-29T04:46:48.461Z,53.7
2017-10-29T04:47:50.300Z,53.4
2017-10-29T04:48:51.775Z,53.7
2017-10-29T04:49:53.595Z,53.2
2017-10-29T04:50:55.758Z,53.2
2017-10-29T04:51:57.918Z,53.3
2017-10-29T04:53:00.082Z,53.4
2017-10-29T04:54:02.241Z,53.9
2017-10-29T04:55:04.063Z,53.2
2017-10-29T04:56:06.219Z,53.4
2017-10-29T04:57:08.036Z,53.1
2017-10-29T04:58:10.199Z,53.4
2017-10-29T04:59:12.363Z,53.4
2017-10-29T05:00:14.561Z,53.4
2017-10-29T05:01:16.361Z,52.9
2017-10-29T05:02:18.524Z,53.4
2017-10-29T05:03:20.684Z,53.5
2017-10-29T05:04:22.504Z,53.5
2017-10-29T05:05:23.981Z,53.2
2017-10-29T05:06:26.144Z,53.3
2017-10-29T05:07:27.595Z,53.4
2017-10-29T05:08:29.433Z,53.4
2017-10-29T05:09:31.249Z,53.4
2017-10-29T05:10:33.050Z,53.2
2017-10-29T05:11:34.865Z,53.6
2017-10-29T05:12:36.683Z,53.1
2017-10-29T05:13:38.155Z,53.4
2017-10-29T05:14:39.953Z,53.3
2017-10-29T05:15:42.114Z,53.5
2017-10-29T05:16:43.589Z,53.5
2017-10-29T05:17:45.752Z,53.5
2017-10-29T05:18:47.225Z,53.5
2017-10-29T05:19:49.023Z,53.1
2017-10-29T05:20:50.824Z,53.4
2017-10-29T05:21:52.640Z,53.3
2017-10-29T05:22:54.801Z,53.5
2017-10-29T05:23:56.635Z,53.6
2017-10-29T05:24:58.109Z,53.2
2017-10-29T05:25:59.906Z,53.1
2017-10-29T05:27:02.076Z,53.4
2017-10-29T05:28:03.887Z,53.6
2017-10-29T05:29:05.684Z,53.2
2017-10-29T05:30:07.500Z,53.1
2017-10-29T05:31:08.955Z,53.1
2017-10-29T05:32:10.771Z,53.6
2017-10-29T05:33:12.932Z,53.5
2017-10-29T05:34:14.751Z,53.5
2017-10-29T05:35:16.914Z,53.2
2017-10-29T05:36:18.367Z,53.3
2017-10-29T05:37:20.527Z,53.5
2017-10-29T05:38:22.327Z,53.5
2017-10-29T05:39:24.489Z,53.5
2017-10-29T05:40:26.320Z,53.8
2017-10-29T05:41:27.757Z,53.8
2017-10-29T05:42:29.917Z,53.8
2017-10-29T05:43:31.391Z,53.8
2017-10-29T05:44:32.861Z,53.5
2017-10-29T05:45:34.313Z,53.8
2017-10-29T05:46:35.419Z,53.9
2017-10-29T05:47:36.898Z,53.8
2017-10-29T05:48:38.352Z,53.4
2017-10-29T05:49:40.169Z,53.6
2017-10-29T05:50:42.070Z,53.8
2017-10-29T05:51:43.899Z,54
2017-10-29T05:52:45.366Z,54
2017-10-29T05:53:46.842Z,53.7
2017-10-29T05:54:48.663Z,53.9
2017-10-29T05:55:50.823Z,53.9
2017-10-29T05:56:52.638Z,53.9
2017-10-29T05:57:54.463Z,53.7
2017-10-29T05:58:56.276Z,53.9
2017-10-29T05:59:57.730Z,54
2017-10-29T06:00:59.206Z,53.8
2017-10-29T06:02:01.024Z,53.9
2017-10-29T06:03:02.848Z,53.9
2017-10-29T06:04:04.665Z,53.8
2017-10-29T06:05:06.485Z,53.8
2017-10-29T06:06:08.747Z,53.9
2017-10-29T06:07:10.568Z,53.9
2017-10-29T06:08:11.679Z,53.9
2017-10-29T06:09:13.134Z,53.8
2017-10-29T06:10:15.301Z,54.1
2017-10-29T06:11:17.111Z,53.9
2017-10-29T06:12:19.279Z,53.8
2017-10-29T06:13:21.076Z,53.9
2017-10-29T06:14:22.895Z,53.9
2017-10-29T06:15:25.062Z,53.8
2017-10-29T06:16:26.883Z,53.8
2017-10-29T06:17:29.045Z,53.9
2017-10-29T06:18:30.522Z,53.8
2017-10-29T06:19:31.977Z,53.9
2017-10-29T06:20:34.138Z,53.8
2017-10-29T06:21:35.589Z,54.1
2017-10-29T06:22:37.758Z,53.9
2017-10-29T06:23:39.553Z,54.2
2017-10-29T06:24:41.373Z,53.9
2017-10-29T06:25:43.173Z,54.2
2017-10-29T06:26:45.334Z,53.9
2017-10-29T06:27:47.500Z,53.8
2017-10-29T06:28:48.972Z,53.9
2017-10-29T06:29:50.793Z,54.1
2017-10-29T06:30:52.247Z,54.2
2017-10-29T06:31:54.407Z,54.2
2017-10-29T06:32:56.204Z,54.1
2017-10-29T06:33:58.027Z,54.5
2017-10-29T06:34:59.848Z,54
2017-10-29T06:36:01.302Z,54
2017-10-29T06:37:03.101Z,54.5
2017-10-29T06:38:04.555Z,54.5
2017-10-29T06:39:06.717Z,54.2
2017-10-29T06:40:08.516Z,54
2017-10-29T06:41:10.683Z,54.5
2017-10-29T06:42:12.482Z,54.1
2017-10-29T06:43:14.647Z,54.2
2017-10-29T06:44:16.812Z,54
2017-10-29T06:45:17.920Z,54
2017-10-29T06:46:19.028Z,53.9
2017-10-29T06:47:21.192Z,54.2
2017-10-29T06:48:23.012Z,54.2
2017-10-29T06:49:25.174Z,53.8
2017-10-29T06:50:27.336Z,53.9
2017-10-29T06:51:29.155Z,53.9
2017-10-29T06:52:30.634Z,53.8
2017-10-29T06:53:32.795Z,54.2
2017-10-29T06:54:34.252Z,53.8
2017-10-29T06:55:36.417Z,54.2
2017-10-29T06:56:38.579Z,53.8
2017-10-29T06:57:40.381Z,53.7
2017-10-29T06:58:42.206Z,53.8
2017-10-29T06:59:44.358Z,54.2
2017-10-29T07:00:45.472Z,53.9
2017-10-29T07:01:47.290Z,53.9
2017-10-29T07:02:49.109Z,54
2017-10-29T07:03:50.931Z,54
2017-10-29T07:04:52.385Z,54.3
2017-10-29T07:05:54.205Z,53.9
2017-10-29T07:06:56.001Z,54
2017-10-29T07:07:57.827Z,54
2017-10-29T07:08:59.624Z,54.3
2017-10-29T07:10:01.448Z,53.9
2017-10-29T07:11:03.251Z,54
2017-10-29T07:12:04.700Z,53.9
2017-10-29T07:13:06.526Z,54
2017-10-29T07:14:08.325Z,54.1
2017-10-29T07:15:10.490Z,54.1
2017-10-29T07:16:12.651Z,54.1
2017-10-29T07:17:14.814Z,54.1
2017-10-29T07:18:16.980Z,54
2017-10-29T07:19:18.434Z,53.8
2017-10-29T07:20:20.601Z,53.8
2017-10-29T07:21:22.418Z,54
2017-10-29T07:22:24.246Z,54.2
2017-10-29T07:23:26.060Z,53.9
2017-10-29T07:24:27.886Z,53.8
2017-10-29T07:25:30.043Z,54.1
2017-10-29T07:26:31.861Z,53.9
2017-10-29T07:27:33.730Z,53.9
2017-10-29T07:28:35.893Z,53.9
2017-10-29T07:29:38.057Z,53.7
2017-10-29T07:30:40.217Z,53.9
2017-10-29T07:31:42.041Z,53.7
2017-10-29T07:32:43.831Z,53.8
2017-10-29T07:33:45.997Z,53.7
2017-10-29T07:34:47.820Z,53.8
2017-10-29T07:35:49.638Z,53.8
2017-10-29T07:36:51.485Z,53.6
2017-10-29T07:37:53.306Z,53.8
2017-10-29T07:38:55.107Z,54
2017-10-29T07:39:56.923Z,53.9
2017-10-29T07:40:59.102Z,53.8
2017-10-29T07:42:00.927Z,53.6
2017-10-29T07:43:02.384Z,53.7
2017-10-29T07:44:03.886Z,54.1
2017-10-29T07:45:05.678Z,53.6
2017-10-29T07:46:07.841Z,53.7
2017-10-29T07:47:09.659Z,54
2017-10-29T07:48:11.484Z,53.5
2017-10-29T07:49:13.284Z,53.6
2017-10-29T07:50:15.443Z,53.7
2017-10-29T07:51:17.266Z,54
2017-10-29T07:52:18.379Z,53.5
2017-10-29T07:53:20.539Z,54
2017-10-29T07:54:22.360Z,54
2017-10-29T07:55:23.125Z,54
2017-10-29T07:56:25.285Z,53.8
2017-10-29T07:57:27.112Z,53.7
2017-10-29T07:58:28.903Z,53.9
2017-10-29T07:59:30.703Z,53.9
2017-10-29T08:00:32.520Z,53.8
2017-10-29T08:01:34.696Z,53.8
2017-10-29T08:02:36.135Z,53.6
2017-10-29T08:03:37.244Z,53.4
2017-10-29T08:04:38.367Z,53.6
2017-10-29T08:05:39.840Z,53.5
2017-10-29T08:06:41.659Z,53.1
2017-10-29T08:07:43.822Z,53.2
2017-10-29T08:08:45.983Z,53.2
2017-10-29T08:09:48.150Z,53.4
2017-10-29T08:10:49.971Z,53.2
2017-10-29T08:11:52.136Z,53.1
2017-10-29T08:12:53.584Z,53.1
2017-10-29T08:13:55.386Z,53.1
2017-10-29T08:14:57.183Z,53.7
2017-10-29T08:15:58.636Z,53.1
2017-10-29T08:17:00.556Z,53.5
2017-10-29T08:18:02.718Z,53.1
2017-10-29T08:19:04.536Z,53.9
2017-10-29T08:20:06.341Z,53.6
2017-10-29T08:21:08.153Z,53.2
2017-10-29T08:22:09.977Z,53.6
2017-10-29T08:23:11.443Z,53.5
2017-10-29T08:24:13.243Z,53.1
2017-10-29T08:25:14.696Z,53.1
2017-10-29T08:26:16.150Z,53
2017-10-29T08:27:17.969Z,53.8
2017-10-29T08:28:19.083Z,53.4
2017-10-29T08:29:21.244Z,53.1
2017-10-29T08:30:23.068Z,53.6
2017-10-29T08:31:24.887Z,53.5
2017-10-29T08:32:27.052Z,53.1
2017-10-29T08:33:28.871Z,53.4
2017-10-29T08:34:30.695Z,53.8
2017-10-29T08:35:32.513Z,53.4
2017-10-29T08:36:34.675Z,53.2
2017-10-29T08:37:36.187Z,53.1
2017-10-29T08:38:38.345Z,53.1
2017-10-29T08:39:40.506Z,53.3
2017-10-29T08:40:42.326Z,53.3
2017-10-29T08:41:43.772Z,53.7
2017-10-29T08:42:45.257Z,53.3
2017-10-29T08:43:47.059Z,53.7
2017-10-29T08:44:48.858Z,52.9
2017-10-29T08:45:50.312Z,52.9
2017-10-29T08:46:52.140Z,52.9
2017-10-29T08:47:53.618Z,53.1
2017-10-29T08:48:55.438Z,53
2017-10-29T08:49:57.613Z,53
2017-10-29T08:50:59.764Z,53.1
2017-10-29T08:52:00.878Z,52.9
2017-10-29T08:53:03.038Z,53.1
2017-10-29T08:54:04.499Z,53.1
2017-10-29T08:55:06.324Z,53.2
2017-10-29T08:56:08.144Z,53.2
2017-10-29T08:57:09.276Z,52.9
2017-10-29T08:58:11.441Z,53.3
2017-10-29T08:59:13.261Z,52.9
2017-10-29T09:00:15.422Z,52.7
2017-10-29T09:01:16.875Z,53
2017-10-29T09:02:18.330Z,52.8
2017-10-29T09:03:19.440Z,53
2017-10-29T09:04:20.921Z,52.8
2017-10-29T09:05:22.741Z,53.4
2017-10-29T09:06:24.194Z,52.9
2017-10-29T09:07:26.015Z,53.5
2017-10-29T09:08:27.822Z,52.7
2017-10-29T09:09:29.633Z,52.8
2017-10-29T09:10:31.454Z,52.8
2017-10-29T09:11:33.623Z,52.7
2017-10-29T09:12:35.802Z,52.9
2017-10-29T09:13:37.619Z,52.6
2017-10-29T09:14:39.434Z,52.6
2017-10-29T09:15:40.549Z,52.4
2017-10-29T09:16:42.370Z,52.5
2017-10-29T09:17:44.533Z,52.4
2017-10-29T09:18:46.357Z,52.3
2017-10-29T09:19:48.169Z,52.5
2017-10-29T09:20:49.645Z,52.6
2017-10-29T09:21:51.106Z,52.6
2017-10-29T09:22:52.898Z,52.6
2017-10-29T09:23:54.376Z,51.9
2017-10-29T09:24:56.194Z,52
2017-10-29T09:25:58.017Z,51.8
2017-10-29T09:26:59.840Z,51.9
2017-10-29T09:28:01.637Z,51.8
2017-10-29T09:29:02.779Z,51.8
2017-10-29T09:30:04.236Z,51.8
2017-10-29T09:31:06.057Z,52
2017-10-29T09:32:07.876Z,52.2
2017-10-29T09:33:09.677Z,51.9
2017-10-29T09:34:11.493Z,52.5
2017-10-29T09:35:12.948Z,51.8
2017-10-29T09:36:14.768Z,51.8
2017-10-29T09:37:16.587Z,51.8
2017-10-29T09:38:18.041Z,51.8
2017-10-29T09:39:19.863Z,51.7
2017-10-29T09:40:21.683Z,51.7
2017-10-29T09:41:23.844Z,51.6
2017-10-29T09:42:24.952Z,51.8
2017-10-29T09:43:26.408Z,51.7
2017-10-29T09:44:27.882Z,51.5
2017-10-29T09:45:29.339Z,51.4
2017-10-29T09:46:30.814Z,51.2
2017-10-29T09:47:32.615Z,51.1
2017-10-29T09:48:34.083Z,51.5
2017-10-29T09:49:35.881Z,51.6
2017-10-29T09:50:37.683Z,51.4
2017-10-29T09:51:39.502Z,51.5
2017-10-29T09:52:41.320Z,51.3
2017-10-29T09:53:42.795Z,51.2
2017-10-29T09:54:44.962Z,51.2
2017-10-29T09:55:46.780Z,51.2
2017-10-29T09:56:48.260Z,50.9
2017-10-29T09:57:50.080Z,51.2
2017-10-29T09:58:51.553Z,51.2
2017-10-29T09:59:53.011Z,51.4
2017-10-29T10:00:55.176Z,50.9
2017-10-29T10:01:56.655Z,50.9
2017-10-29T10:02:58.921Z,51.1
2017-10-29T10:04:00.740Z,51.1
2017-10-29T10:05:02.214Z,51
2017-10-29T10:06:04.032Z,50.8
2017-10-29T10:07:05.851Z,51
2017-10-29T10:08:07.306Z,50.8
2017-10-29T10:09:08.764Z,50.6
2017-10-29T10:10:10.575Z,50.6
2017-10-29T10:11:12.392Z,50.9
2017-10-29T10:12:14.214Z,50.7
2017-10-29T10:13:16.030Z,51.1
2017-10-29T10:14:17.521Z,50.6
2017-10-29T10:15:18.975Z,50.7
2017-10-29T10:16:21.139Z,50.7
2017-10-29T10:17:22.989Z,50.6
2017-10-29T10:18:24.466Z,50.6
2017-10-29T10:19:26.268Z,50.7
2017-10-29T10:20:28.430Z,50.6
2017-10-29T10:21:29.887Z,51.4
2017-10-29T10:22:30.993Z,50.9
2017-10-29T10:23:33.163Z,50.6
2017-10-29T10:24:34.987Z,50.7
2017-10-29T10:25:36.812Z,50.9
2017-10-29T10:26:38.272Z,50.5
2017-10-29T10:27:39.744Z,50.5
2017-10-29T10:28:41.226Z,50.5
2017-10-29T10:29:43.046Z,50.5
2017-10-29T10:30:44.502Z,50.1
2017-10-29T10:31:46.670Z,50.3
2017-10-29T10:32:48.120Z,50.2
2017-10-29T10:33:49.234Z,50.3
2017-10-29T10:34:50.372Z,50.5
2017-10-29T10:35:52.171Z,50.4
2017-10-29T10:36:54.335Z,50.4
2017-10-29T10:37:56.160Z,50.2
2017-10-29T10:38:57.960Z,50.4
2017-10-29T10:39:59.783Z,50.2
2017-10-29T10:41:01.602Z,50.2
2017-10-29T10:42:03.766Z,50.4
2017-10-29T10:43:05.240Z,49.9
2017-10-29T10:44:07.043Z,50.1
2017-10-29T10:45:09.207Z,50
2017-10-29T10:46:11.374Z,50.1
2017-10-29T10:47:13.532Z,50
2017-10-29T10:48:15.353Z,50.1
2017-10-29T10:49:16.808Z,49.9
2017-10-29T10:50:18.975Z,50
2017-10-29T10:51:20.796Z,49.6
2017-10-29T10:52:22.957Z,49.7
2017-10-29T10:53:25.127Z,49.9
2017-10-29T10:54:26.598Z,49.6
2017-10-29T10:55:28.058Z,49.7
2017-10-29T10:56:29.522Z,50
2017-10-29T10:57:31.041Z,49.6
2017-10-29T10:58:32.518Z,49.5
2017-10-29T10:59:34.678Z,49.7
2017-10-29T11:00:36.846Z,50
2017-10-29T11:01:38.298Z,49.9
2017-10-29T11:02:40.119Z,49.5
2017-10-29T11:03:41.939Z,49.7
2017-10-29T11:04:43.760Z,49.7
2017-10-29T11:05:45.921Z,49.8
2017-10-29T11:06:47.401Z,50.1
2017-10-29T11:07:49.222Z,49.4
2017-10-29T11:08:51.042Z,49.6
2017-10-29T11:09:53.209Z,49.8
2017-10-29T11:10:55.031Z,49.6
2017-10-29T11:11:56.485Z,49.8
2017-10-29T11:12:58.308Z,49.6
2017-10-29T11:13:59.761Z,49.9
2017-10-29T11:15:01.585Z,50
2017-10-29T11:16:03.403Z,49.4
2017-10-29T11:17:05.224Z,49.6
2017-10-29T11:18:07.388Z,49.2
2017-10-29T11:19:09.207Z,49.2
2017-10-29T11:20:11.031Z,49.5
2017-10-29T11:21:12.852Z,49.3
2017-10-29T11:22:14.672Z,49.6
2017-10-29T11:23:16.127Z,49.3
2017-10-29T11:24:18.295Z,49.3
2017-10-29T11:25:20.113Z,49.1
2017-10-29T11:26:22.278Z,49.4
2017-10-29T11:27:24.077Z,48.8
2017-10-29T11:28:25.895Z,49
2017-10-29T11:29:27.355Z,48.8
2017-10-29T11:30:29.176Z,48.8
2017-10-29T11:31:30.652Z,49.2
2017-10-29T11:32:32.127Z,49
2017-10-29T11:33:34.297Z,48.6
2017-10-29T11:34:36.465Z,48.6
2017-10-29T11:35:37.918Z,48.8
2017-10-29T11:36:40.084Z,49
2017-10-29T11:37:41.218Z,48.8
2017-10-29T11:38:42.675Z,48.9
2017-10-29T11:39:44.479Z,48.8
2017-10-29T11:40:45.947Z,48.6
2017-10-29T11:41:47.774Z,48.6
2017-10-29T11:42:49.601Z,48.5
2017-10-29T11:43:51.418Z,48.5
2017-10-29T11:44:53.586Z,48.8
2017-10-29T11:45:55.403Z,48.8
2017-10-29T11:46:56.518Z,48.9
2017-10-29T11:47:58.679Z,48.6
2017-10-29T11:49:00.500Z,48.7
2017-10-29T11:50:01.974Z,48.6
2017-10-29T11:51:03.791Z,48.8
2017-10-29T11:52:04.551Z,48.8
2017-10-29T11:53:06.058Z,48.6
2017-10-29T11:54:08.228Z,48.8
2017-10-29T11:55:10.047Z,49
2017-10-29T11:56:11.177Z,48.7
2017-10-29T11:57:12.983Z,48.5
2017-10-29T11:58:14.813Z,48.7
2017-10-29T11:59:15.938Z,48.7
2017-10-29T12:00:17.062Z,48.7
2017-10-29T12:01:18.504Z,48.7
2017-10-29T12:02:19.978Z,48.9
2017-10-29T12:03:21.776Z,48.7
2017-10-29T12:04:23.597Z,48.8
2017-10-29T12:05:25.761Z,48.8
2017-10-29T12:06:27.927Z,48.6
2017-10-29T12:07:29.379Z,48.7
2017-10-29T12:08:30.856Z,48.7
2017-10-29T12:09:33.024Z,48.7
2017-10-29T12:10:34.845Z,49.1
2017-10-29T12:11:36.665Z,48.6
2017-10-29T12:12:38.485Z,48.8
2017-10-29T12:13:40.282Z,48.8
2017-10-29T12:14:41.761Z,48.6
2017-10-29T12:15:43.925Z,48.8
2017-10-29T12:16:45.743Z,48.6
2017-10-29T12:17:47.908Z,48.6
2017-10-29T12:18:50.079Z,48.8
2017-10-29T12:19:51.194Z,48.7
2017-10-29T12:20:52.991Z,48.6
2017-10-29T12:21:54.793Z,48.7
2017-10-29T12:22:56.260Z,48.8
2017-10-29T12:23:58.082Z,48.6
2017-10-29T12:24:59.900Z,48.7
2017-10-29T12:26:01.365Z,48.8
2017-10-29T12:27:03.179Z,48.6
2017-10-29T12:28:04.294Z,48.8
2017-10-29T12:29:06.460Z,48.3
2017-10-29T12:30:07.938Z,48.8
2017-10-29T12:31:09.736Z,48.6
2017-10-29T12:32:11.902Z,48.7
2017-10-29T12:33:13.377Z,48.6
2017-10-29T12:34:14.836Z,48.6
2017-10-29T12:35:17.003Z,48.3
2017-10-29T12:36:19.169Z,48.4
2017-10-29T12:37:20.984Z,48.5
2017-10-29T12:38:22.442Z,48.3
2017-10-29T12:39:23.894Z,48
2017-10-29T12:40:25.347Z,48
2017-10-29T12:41:26.799Z,48.1
2017-10-29T12:42:28.629Z,47.9
2017-10-29T12:43:30.794Z,47.9
2017-10-29T12:44:33.008Z,48.1
2017-10-29T12:45:34.118Z,47.9
2017-10-29T12:46:35.570Z,48.3
2017-10-29T12:47:37.736Z,47.9
2017-10-29T12:48:39.559Z,47.9
2017-10-29T12:49:41.723Z,48.1
2017-10-29T12:50:43.544Z,48.1
2017-10-29T12:51:44.999Z,48.1
2017-10-29T12:52:46.827Z,48.3
2017-10-29T12:53:48.648Z,47.9
2017-10-29T12:54:50.467Z,48
2017-10-29T12:55:52.290Z,48.2
2017-10-29T12:56:54.108Z,48.2
2017-10-29T12:57:56.271Z,47.7
2017-10-29T12:58:57.727Z,48.1
2017-10-29T12:59:59.206Z,48.5
2017-10-29T13:01:01.044Z,47.9
2017-10-29T13:02:02.521Z,48.4
2017-10-29T13:03:04.319Z,47.7
2017-10-29T13:04:06.135Z,48.2
2017-10-29T13:05:08.301Z,48.3
2017-10-29T13:06:10.121Z,48
2017-10-29T13:07:12.281Z,48.3
2017-10-29T13:08:14.443Z,48.1
2017-10-29T13:09:16.288Z,48.2
2017-10-29T13:10:18.442Z,47.8
2017-10-29T13:11:20.601Z,48
2017-10-29T13:12:22.075Z,48.1
2017-10-29T13:13:24.243Z,48.2
2017-10-29T13:14:25.715Z,48
2017-10-29T13:15:27.195Z,48.1
2017-10-29T13:16:29.015Z,48.2
2017-10-29T13:17:30.812Z,48.3
2017-10-29T13:18:32.287Z,48
2017-10-29T13:19:34.104Z,48
2017-10-29T13:20:35.924Z,48.4
2017-10-29T13:21:37.747Z,47.9
2017-10-29T13:22:39.220Z,48
2017-10-29T13:23:41.017Z,48.3
2017-10-29T13:24:42.494Z,48
2017-10-29T13:25:44.660Z,47.9
2017-10-29T13:26:46.478Z,48
2017-10-29T13:27:48.645Z,48
2017-10-29T13:28:49.761Z,48.4
2017-10-29T13:29:50.895Z,48.6
2017-10-29T13:30:53.050Z,48.7
2017-10-29T13:31:54.871Z,48.5
2017-10-29T13:32:55.975Z,48.4
2017-10-29T13:33:58.140Z,48.4
2017-10-29T13:35:00.304Z,48.4
2017-10-29T13:36:02.102Z,48.3
2017-10-29T13:37:03.924Z,47.8
2017-10-29T13:38:05.745Z,48.1
2017-10-29T13:39:07.564Z,48.2
2017-10-29T13:40:09.021Z,48
2017-10-29T13:41:10.892Z,48.5
2017-10-29T13:42:12.348Z,48
2017-10-29T13:43:14.513Z,47.9
2017-10-29T13:44:16.311Z,48.4
2017-10-29T13:45:17.763Z,48.5
2017-10-29T13:46:19.248Z,48.4
2017-10-29T13:47:21.060Z,48.4